sensor_id;sensor_type;location;lat;lon;timestamp;temperature;humidity
67273;DHT22;54190;49.770;9.250;2023-02-23T00:01:27;7.30;99.90
67273;DHT22;54190;49.770;9.250;2023-02-23T00:03:54;7.20;99.90
67273;DHT22;54190;49.770;9.250;2023-02-23T00:06:21;7.20;99.90
67273;DHT22;54190;49.770;9.250;2023-02-23T00:08:47;7.20;99.90
67273;DHT22;54190;49.770;9.250;2023-02-23T00:11:14;7.20;99.90
67273;DHT22;54190;49.770;9.250;2023-02-23T00:13:41;7.20;99.90
67273;DHT22;54190;49.770;9.250;2023-02-23T00:16:13;7.30;99.90
67273;DHT22;54190;49.770;9.250;2023-02-23T00:18:47;7.30;99.90
67273;DHT22;54190;49.770;9.250;2023-02-23T00:21:18;7.40;99.90
67273;DHT22;54190;49.770;9.250;2023-02-23T00:26:14;7.40;99.90
67273;DHT22;54190;49.770;9.250;2023-02-23T00:28:42;7.30;99.90
67273;DHT22;54190;49.770;9.250;2023-02-23T00:31:09;7.30;99.90
67273;DHT22;54190;49.770;9.250;2023-02-23T00:33:35;7.30;99.90
67273;DHT22;54190;49.770;9.250;2023-02-23T00:36:12;7.20;99.90
67273;DHT22;54190;49.770;9.250;2023-02-23T00:38:38;7.20;99.90
67273;DHT22;54190;49.770;9.250;2023-02-23T00:41:10;7.20;99.90
67273;DHT22;54190;49.770;9.250;2023-02-23T00:43:40;7.30;99.90
67273;DHT22;54190;49.770;9.250;2023-02-23T00:46:13;7.30;99.90
67273;DHT22;54190;49.770;9.250;2023-02-23T00:48:43;7.30;99.90
67273;DHT22;54190;49.770;9.250;2023-02-23T00:51:10;7.30;99.90
67273;DHT22;54190;49.770;9.250;2023-02-23T00:53:36;7.40;99.90
67273;DHT22;54190;49.770;9.250;2023-02-23T00:56:06;7.30;99.90
67273;DHT22;54190;49.770;9.250;2023-02-23T00:58:32;7.40;99.90
67273;DHT22;54190;49.770;9.250;2023-02-23T01:00:58;7.40;99.90
67273;DHT22;54190;49.770;9.250;2023-02-23T01:03:25;7.40;99.90
67273;DHT22;54190;49.770;9.250;2023-02-23T01:05:50;7.40;99.90
67273;DHT22;54190;49.770;9.250;2023-02-23T01:08:17;7.40;99.90
67273;DHT22;54190;49.770;9.250;2023-02-23T01:10:44;7.40;99.90
67273;DHT22;54190;49.770;9.250;2023-02-23T01:13:16;7.40;99.90
67273;DHT22;54190;49.770;9.250;2023-02-23T01:15:43;7.40;99.90
67273;DHT22;54190;49.770;9.250;2023-02-23T01:18:10;7.40;99.90
67273;DHT22;54190;49.770;9.250;2023-02-23T01:20:37;7.40;99.90
67273;DHT22;54190;49.770;9.250;2023-02-23T01:23:06;7.40;99.90
67273;DHT22;54190;49.770;9.250;2023-02-23T01:25:33;7.40;99.90
67273;DHT22;54190;49.770;9.250;2023-02-23T01:27:59;7.40;99.90
67273;DHT22;54190;49.770;9.250;2023-02-23T01:30:25;7.40;99.90
67273;DHT22;54190;49.770;9.250;2023-02-23T01:32:51;7.40;99.90
67273;DHT22;54190;49.770;9.250;2023-02-23T01:35:19;7.40;99.90
67273;DHT22;54190;49.770;9.250;2023-02-23T01:37:48;7.40;99.90
67273;DHT22;54190;49.770;9.250;2023-02-23T01:42:42;7.40;99.90
67273;DHT22;54190;49.770;9.250;2023-02-23T01:45:22;7.40;99.90
67273;DHT22;54190;49.770;9.250;2023-02-23T01:47:52;7.40;99.90
67273;DHT22;54190;49.770;9.250;2023-02-23T01:50:20;7.40;99.90
67273;DHT22;54190;49.770;9.250;2023-02-23T01:52:49;7.50;99.90
67273;DHT22;54190;49.770;9.250;2023-02-23T01:55:16;7.40;99.90
67273;DHT22;54190;49.770;9.250;2023-02-23T01:57:53;7.50;99.90
67273;DHT22;54190;49.770;9.250;2023-02-23T02:00:21;7.40;99.90
67273;DHT22;54190;49.770;9.250;2023-02-23T02:02:50;7.40;99.90
67273;DHT22;54190;49.770;9.250;2023-02-23T02:05:18;7.30;99.90
67273;DHT22;54190;49.770;9.250;2023-02-23T02:07:49;7.40;99.90
67273;DHT22;54190;49.770;9.250;2023-02-23T02:10:26;7.40;99.90
67273;DHT22;54190;49.770;9.250;2023-02-23T02:13:07;7.40;99.90
67273;DHT22;54190;49.770;9.250;2023-02-23T02:15:40;7.40;99.90
67273;DHT22;54190;49.770;9.250;2023-02-23T02:18:46;7.40;99.90
67273;DHT22;54190;49.770;9.250;2023-02-23T02:38:15;7.50;99.90
67273;DHT22;54190;49.770;9.250;2023-02-23T02:40:45;7.50;99.90
67273;DHT22;54190;49.770;9.250;2023-02-23T02:46:13;7.50;99.90
67273;DHT22;54190;49.770;9.250;2023-02-23T02:51:41;7.40;99.90
67273;DHT22;54190;49.770;9.250;2023-02-23T02:56:43;7.30;99.90
67273;DHT22;54190;49.770;9.250;2023-02-23T02:59:15;7.30;99.90
67273;DHT22;54190;49.770;9.250;2023-02-23T03:02:00;7.30;99.90
67273;DHT22;54190;49.770;9.250;2023-02-23T03:04:45;7.30;99.90
67273;DHT22;54190;49.770;9.250;2023-02-23T03:07:59;7.40;99.90
67273;DHT22;54190;49.770;9.250;2023-02-23T03:16:42;7.40;99.90
67273;DHT22;54190;49.770;9.250;2023-02-23T03:19:33;7.40;99.90
67273;DHT22;54190;49.770;9.250;2023-02-23T03:25:15;7.50;99.90
67273;DHT22;54190;49.770;9.250;2023-02-23T03:28:11;7.60;99.90
67273;DHT22;54190;49.770;9.250;2023-02-23T03:31:23;7.60;99.90
67273;DHT22;54190;49.770;9.250;2023-02-23T03:34:49;7.60;99.90
67273;DHT22;54190;49.770;9.250;2023-02-23T03:37:43;7.60;99.90
67273;DHT22;54190;49.770;9.250;2023-02-23T03:40:32;7.60;99.90
67273;DHT22;54190;49.770;9.250;2023-02-23T03:43:22;7.60;99.90
67273;DHT22;54190;49.770;9.250;2023-02-23T03:46:09;7.60;99.90
67273;DHT22;54190;49.770;9.250;2023-02-23T03:48:56;7.60;99.90
67273;DHT22;54190;49.770;9.250;2023-02-23T03:51:47;7.60;99.90
67273;DHT22;54190;49.770;9.250;2023-02-23T03:54:55;7.60;99.90
67273;DHT22;54190;49.770;9.250;2023-02-23T03:57:42;7.60;99.90
67273;DHT22;54190;49.770;9.250;2023-02-23T04:00:31;7.60;99.90
67273;DHT22;54190;49.770;9.250;2023-02-23T04:03:18;7.60;99.90
67273;DHT22;54190;49.770;9.250;2023-02-23T04:06:06;7.60;99.90
67273;DHT22;54190;49.770;9.250;2023-02-23T04:08:51;7.60;99.90
67273;DHT22;54190;49.770;9.250;2023-02-23T04:14:50;7.60;99.90
67273;DHT22;54190;49.770;9.250;2023-02-23T04:17:20;7.50;99.90
67273;DHT22;54190;49.770;9.250;2023-02-23T04:19:50;7.50;99.90
67273;DHT22;54190;49.770;9.250;2023-02-23T04:22:16;7.40;99.90
67273;DHT22;54190;49.770;9.250;2023-02-23T04:24:42;7.40;99.90
67273;DHT22;54190;49.770;9.250;2023-02-23T04:27:07;7.30;99.90
67273;DHT22;54190;49.770;9.250;2023-02-23T04:29:33;7.30;99.90
67273;DHT22;54190;49.770;9.250;2023-02-23T04:31:59;7.30;99.90
67273;DHT22;54190;49.770;9.250;2023-02-23T04:34:24;7.30;99.90
67273;DHT22;54190;49.770;9.250;2023-02-23T04:36:50;7.40;99.90
67273;DHT22;54190;49.770;9.250;2023-02-23T04:39:16;7.40;99.90
67273;DHT22;54190;49.770;9.250;2023-02-23T04:41:41;7.40;99.90
67273;DHT22;54190;49.770;9.250;2023-02-23T04:44:07;7.50;99.90
67273;DHT22;54190;49.770;9.250;2023-02-23T04:46:33;7.50;99.90
67273;DHT22;54190;49.770;9.250;2023-02-23T04:48:58;7.60;99.90
67273;DHT22;54190;49.770;9.250;2023-02-23T04:51:24;7.60;99.90
67273;DHT22;54190;49.770;9.250;2023-02-23T04:53:55;7.60;99.90
67273;DHT22;54190;49.770;9.250;2023-02-23T04:56:21;7.60;99.90
67273;DHT22;54190;49.770;9.250;2023-02-23T04:58:46;7.60;99.90
67273;DHT22;54190;49.770;9.250;2023-02-23T05:01:12;7.60;99.90
67273;DHT22;54190;49.770;9.250;2023-02-23T05:03:37;7.60;99.90
67273;DHT22;54190;49.770;9.250;2023-02-23T05:06:03;7.60;99.90
67273;DHT22;54190;49.770;9.250;2023-02-23T05:08:29;7.60;99.90
67273;DHT22;54190;49.770;9.250;2023-02-23T05:10:54;7.60;99.90
67273;DHT22;54190;49.770;9.250;2023-02-23T05:13:20;7.60;99.90
67273;DHT22;54190;49.770;9.250;2023-02-23T05:15:46;7.60;99.90
67273;DHT22;54190;49.770;9.250;2023-02-23T05:18:14;7.60;99.90
67273;DHT22;54190;49.770;9.250;2023-02-23T05:20:43;7.70;99.90
67273;DHT22;54190;49.770;9.250;2023-02-23T05:23:12;7.60;99.90
67273;DHT22;54190;49.770;9.250;2023-02-23T05:25:38;7.60;99.90
67273;DHT22;54190;49.770;9.250;2023-02-23T05:28:04;7.70;99.90
67273;DHT22;54190;49.770;9.250;2023-02-23T05:30:30;7.60;99.90
67273;DHT22;54190;49.770;9.250;2023-02-23T05:32:56;7.60;99.90
67273;DHT22;54190;49.770;9.250;2023-02-23T05:35:21;7.60;99.90
67273;DHT22;54190;49.770;9.250;2023-02-23T05:37:47;7.60;99.90
67273;DHT22;54190;49.770;9.250;2023-02-23T05:40:13;7.70;99.90
67273;DHT22;54190;49.770;9.250;2023-02-23T05:42:39;7.70;99.90
67273;DHT22;54190;49.770;9.250;2023-02-23T05:45:05;7.60;99.90
67273;DHT22;54190;49.770;9.250;2023-02-23T05:47:32;7.60;99.90
67273;DHT22;54190;49.770;9.250;2023-02-23T05:50:07;7.60;99.90
67273;DHT22;54190;49.770;9.250;2023-02-23T05:52:37;7.60;99.90
67273;DHT22;54190;49.770;9.250;2023-02-23T05:55:03;7.60;99.90
67273;DHT22;54190;49.770;9.250;2023-02-23T05:57:29;7.70;99.90
67273;DHT22;54190;49.770;9.250;2023-02-23T05:59:55;7.70;99.90
67273;DHT22;54190;49.770;9.250;2023-02-23T06:02:21;7.70;99.90
67273;DHT22;54190;49.770;9.250;2023-02-23T06:04:46;7.70;99.90
67273;DHT22;54190;49.770;9.250;2023-02-23T06:07:12;7.70;99.90
67273;DHT22;54190;49.770;9.250;2023-02-23T06:09:38;7.70;99.90
67273;DHT22;54190;49.770;9.250;2023-02-23T06:12:05;7.70;99.90
67273;DHT22;54190;49.770;9.250;2023-02-23T06:14:31;7.60;99.90
67273;DHT22;54190;49.770;9.250;2023-02-23T06:16:57;7.60;99.90
67273;DHT22;54190;49.770;9.250;2023-02-23T06:19:24;7.60;99.90
67273;DHT22;54190;49.770;9.250;2023-02-23T06:21:50;7.60;99.90
67273;DHT22;54190;49.770;9.250;2023-02-23T06:24:18;7.50;99.90
67273;DHT22;54190;49.770;9.250;2023-02-23T06:26:44;7.50;99.90
67273;DHT22;54190;49.770;9.250;2023-02-23T06:29:10;7.40;99.90
67273;DHT22;54190;49.770;9.250;2023-02-23T06:31:37;7.40;99.90
67273;DHT22;54190;49.770;9.250;2023-02-23T06:34:09;7.50;99.90
67273;DHT22;54190;49.770;9.250;2023-02-23T06:36:36;7.50;99.90
67273;DHT22;54190;49.770;9.250;2023-02-23T06:39:02;7.50;99.90
67273;DHT22;54190;49.770;9.250;2023-02-23T06:41:28;7.40;99.90
67273;DHT22;54190;49.770;9.250;2023-02-23T06:43:55;7.40;99.90
67273;DHT22;54190;49.770;9.250;2023-02-23T06:46:21;7.40;99.90
67273;DHT22;54190;49.770;9.250;2023-02-23T06:48:47;7.50;99.90
67273;DHT22;54190;49.770;9.250;2023-02-23T06:51:13;7.50;99.90
67273;DHT22;54190;49.770;9.250;2023-02-23T06:53:38;7.60;99.90
67273;DHT22;54190;49.770;9.250;2023-02-23T06:56:04;7.60;99.90
67273;DHT22;54190;49.770;9.250;2023-02-23T06:58:30;7.60;99.90
67273;DHT22;54190;49.770;9.250;2023-02-23T07:00:56;7.70;99.90
67273;DHT22;54190;49.770;9.250;2023-02-23T07:03:24;7.70;99.90
67273;DHT22;54190;49.770;9.250;2023-02-23T07:05:50;7.70;99.90
67273;DHT22;54190;49.770;9.250;2023-02-23T07:08:16;7.70;99.90
67273;DHT22;54190;49.770;9.250;2023-02-23T07:10:43;7.70;99.90
67273;DHT22;54190;49.770;9.250;2023-02-23T07:13:09;7.70;99.90
67273;DHT22;54190;49.770;9.250;2023-02-23T07:15:39;7.80;99.90
67273;DHT22;54190;49.770;9.250;2023-02-23T07:18:05;7.70;99.90
67273;DHT22;54190;49.770;9.250;2023-02-23T07:20:31;7.70;99.90
67273;DHT22;54190;49.770;9.250;2023-02-23T07:22:58;7.70;99.90
67273;DHT22;54190;49.770;9.250;2023-02-23T07:25:26;7.70;99.90
67273;DHT22;54190;49.770;9.250;2023-02-23T07:27:52;7.80;99.90
67273;DHT22;54190;49.770;9.250;2023-02-23T07:30:23;7.80;99.90
67273;DHT22;54190;49.770;9.250;2023-02-23T07:32:52;7.80;99.90
67273;DHT22;54190;49.770;9.250;2023-02-23T07:35:19;7.80;99.90
67273;DHT22;54190;49.770;9.250;2023-02-23T07:37:44;7.90;99.90
67273;DHT22;54190;49.770;9.250;2023-02-23T07:40:11;7.80;99.90
67273;DHT22;54190;49.770;9.250;2023-02-23T07:42:36;7.90;99.90
67273;DHT22;54190;49.770;9.250;2023-02-23T07:45:03;7.90;99.90
67273;DHT22;54190;49.770;9.250;2023-02-23T07:47:29;7.90;99.90
67273;DHT22;54190;49.770;9.250;2023-02-23T07:49:59;8.00;99.90
67273;DHT22;54190;49.770;9.250;2023-02-23T07:52:28;8.00;99.90
67273;DHT22;54190;49.770;9.250;2023-02-23T07:54:53;8.00;99.90
67273;DHT22;54190;49.770;9.250;2023-02-23T07:57:20;8.00;99.90
67273;DHT22;54190;49.770;9.250;2023-02-23T07:59:48;8.00;99.90
67273;DHT22;54190;49.770;9.250;2023-02-23T08:02:14;8.10;99.90
67273;DHT22;54190;49.770;9.250;2023-02-23T08:04:41;8.10;99.90
67273;DHT22;54190;49.770;9.250;2023-02-23T08:07:08;8.10;99.90
67273;DHT22;54190;49.770;9.250;2023-02-23T08:09:34;8.10;99.90
67273;DHT22;54190;49.770;9.250;2023-02-23T08:12:01;8.10;99.90
67273;DHT22;54190;49.770;9.250;2023-02-23T08:14:27;8.10;99.90
67273;DHT22;54190;49.770;9.250;2023-02-23T08:16:53;8.20;99.90
67273;DHT22;54190;49.770;9.250;2023-02-23T08:19:19;8.20;99.90
67273;DHT22;54190;49.770;9.250;2023-02-23T08:21:48;8.20;99.90
67273;DHT22;54190;49.770;9.250;2023-02-23T08:24:14;8.30;99.90
67273;DHT22;54190;49.770;9.250;2023-02-23T08:26:40;8.30;99.90
67273;DHT22;54190;49.770;9.250;2023-02-23T08:29:06;8.30;99.90
67273;DHT22;54190;49.770;9.250;2023-02-23T08:31:33;8.30;99.90
67273;DHT22;54190;49.770;9.250;2023-02-23T08:33:58;8.40;99.90
67273;DHT22;54190;49.770;9.250;2023-02-23T08:36:24;8.40;99.90
67273;DHT22;54190;49.770;9.250;2023-02-23T08:38:50;8.40;99.90
67273;DHT22;54190;49.770;9.250;2023-02-23T08:41:16;8.50;99.90
67273;DHT22;54190;49.770;9.250;2023-02-23T08:43:42;8.50;99.90
67273;DHT22;54190;49.770;9.250;2023-02-23T08:46:08;8.50;99.90
67273;DHT22;54190;49.770;9.250;2023-02-23T08:48:34;8.60;99.90
67273;DHT22;54190;49.770;9.250;2023-02-23T08:51:01;8.60;99.90
67273;DHT22;54190;49.770;9.250;2023-02-23T08:53:27;8.60;99.90
67273;DHT22;54190;49.770;9.250;2023-02-23T08:56:02;8.70;99.90
67273;DHT22;54190;49.770;9.250;2023-02-23T08:58:29;8.80;99.90
67273;DHT22;54190;49.770;9.250;2023-02-23T09:00:56;8.80;99.90
67273;DHT22;54190;49.770;9.250;2023-02-23T09:03:22;8.90;99.90
67273;DHT22;54190;49.770;9.250;2023-02-23T09:05:48;9.00;99.90
67273;DHT22;54190;49.770;9.250;2023-02-23T09:08:14;9.10;99.90
67273;DHT22;54190;49.770;9.250;2023-02-23T09:10:40;9.10;99.90
67273;DHT22;54190;49.770;9.250;2023-02-23T09:13:11;9.20;99.90
67273;DHT22;54190;49.770;9.250;2023-02-23T09:15:40;9.30;99.90
67273;DHT22;54190;49.770;9.250;2023-02-23T09:18:08;9.30;99.90
67273;DHT22;54190;49.770;9.250;2023-02-23T09:20:34;9.40;99.90
67273;DHT22;54190;49.770;9.250;2023-02-23T09:23:00;9.40;99.90
67273;DHT22;54190;49.770;9.250;2023-02-23T09:25:26;9.50;99.90
67273;DHT22;54190;49.770;9.250;2023-02-23T09:27:54;9.50;99.90
67273;DHT22;54190;49.770;9.250;2023-02-23T09:30:22;9.50;99.90
67273;DHT22;54190;49.770;9.250;2023-02-23T09:32:49;9.60;99.90
67273;DHT22;54190;49.770;9.250;2023-02-23T09:35:16;9.60;99.90
67273;DHT22;54190;49.770;9.250;2023-02-23T09:37:53;9.60;99.90
67273;DHT22;54190;49.770;9.250;2023-02-23T09:40:28;9.60;99.90
67273;DHT22;54190;49.770;9.250;2023-02-23T09:43:03;9.60;99.90
67273;DHT22;54190;49.770;9.250;2023-02-23T09:45:41;9.60;99.90
67273;DHT22;54190;49.770;9.250;2023-02-23T09:48:12;9.60;99.90
67273;DHT22;54190;49.770;9.250;2023-02-23T09:50:39;9.60;99.90
67273;DHT22;54190;49.770;9.250;2023-02-23T09:53:23;9.60;99.90
67273;DHT22;54190;49.770;9.250;2023-02-23T09:55:52;9.60;99.90
67273;DHT22;54190;49.770;9.250;2023-02-23T09:58:30;9.60;99.90
67273;DHT22;54190;49.770;9.250;2023-02-23T10:04:00;9.70;99.90
67273;DHT22;54190;49.770;9.250;2023-02-23T10:06:28;9.70;99.90
67273;DHT22;54190;49.770;9.250;2023-02-23T10:09:07;9.70;99.90
67273;DHT22;54190;49.770;9.250;2023-02-23T10:11:45;9.80;99.90
67273;DHT22;54190;49.770;9.250;2023-02-23T10:17:58;9.80;99.90
67273;DHT22;54190;49.770;9.250;2023-02-23T10:23:06;9.90;99.90
67273;DHT22;54190;49.770;9.250;2023-02-23T10:25:36;10.00;99.90
67273;DHT22;54190;49.770;9.250;2023-02-23T10:28:05;10.10;99.90
67273;DHT22;54190;49.770;9.250;2023-02-23T10:30:34;10.10;99.90
67273;DHT22;54190;49.770;9.250;2023-02-23T10:35:45;10.20;99.90
67273;DHT22;54190;49.770;9.250;2023-02-23T10:38:14;10.10;99.90
67273;DHT22;54190;49.770;9.250;2023-02-23T10:40:40;10.10;99.90
67273;DHT22;54190;49.770;9.250;2023-02-23T10:43:09;10.10;99.90
67273;DHT22;54190;49.770;9.250;2023-02-23T10:45:40;10.20;99.90
67273;DHT22;54190;49.770;9.250;2023-02-23T10:48:15;10.20;99.90
67273;DHT22;54190;49.770;9.250;2023-02-23T10:50:42;10.30;99.90
67273;DHT22;54190;49.770;9.250;2023-02-23T10:53:11;10.30;99.90
67273;DHT22;54190;49.770;9.250;2023-02-23T10:55:43;10.30;99.90
67273;DHT22;54190;49.770;9.250;2023-02-23T10:58:11;10.40;99.90
67273;DHT22;54190;49.770;9.250;2023-02-23T11:00:51;10.40;99.90
67273;DHT22;54190;49.770;9.250;2023-02-23T11:03:44;10.50;99.90
67273;DHT22;54190;49.770;9.250;2023-02-23T11:08:51;10.50;99.90
67273;DHT22;54190;49.770;9.250;2023-02-23T11:11:22;10.60;99.90
67273;DHT22;54190;49.770;9.250;2023-02-23T11:13:50;10.60;99.90
67273;DHT22;54190;49.770;9.250;2023-02-23T11:16:28;10.60;99.90
67273;DHT22;54190;49.770;9.250;2023-02-23T11:19:03;10.70;99.90
67273;DHT22;54190;49.770;9.250;2023-02-23T11:21:50;10.70;99.90
67273;DHT22;54190;49.770;9.250;2023-02-23T11:24:28;10.70;99.90
67273;DHT22;54190;49.770;9.250;2023-02-23T11:27:00;10.70;99.90
67273;DHT22;54190;49.770;9.250;2023-02-23T11:32:06;10.90;99.90
67273;DHT22;54190;49.770;9.250;2023-02-23T11:34:36;10.90;99.90
67273;DHT22;54190;49.770;9.250;2023-02-23T11:39:55;11.00;99.90
67273;DHT22;54190;49.770;9.250;2023-02-23T11:42:23;11.10;99.90
67273;DHT22;54190;49.770;9.250;2023-02-23T11:45:13;11.20;99.90
67273;DHT22;54190;49.770;9.250;2023-02-23T11:47:43;11.20;99.90
67273;DHT22;54190;49.770;9.250;2023-02-23T11:53:06;11.30;99.90
67273;DHT22;54190;49.770;9.250;2023-02-23T11:55:38;11.30;99.90
67273;DHT22;54190;49.770;9.250;2023-02-23T11:58:41;11.30;99.90
67273;DHT22;54190;49.770;9.250;2023-02-23T12:01:10;11.30;99.90
67273;DHT22;54190;49.770;9.250;2023-02-23T12:03:44;11.40;99.90
67273;DHT22;54190;49.770;9.250;2023-02-23T12:06:10;11.30;99.90
67273;DHT22;54190;49.770;9.250;2023-02-23T12:08:40;11.30;99.90
67273;DHT22;54190;49.770;9.250;2023-02-23T12:11:13;11.40;99.90
67273;DHT22;54190;49.770;9.250;2023-02-23T12:13:48;11.40;99.90
67273;DHT22;54190;49.770;9.250;2023-02-23T12:16:24;11.50;99.90
67273;DHT22;54190;49.770;9.250;2023-02-23T12:19:38;11.50;99.90
67273;DHT22;54190;49.770;9.250;2023-02-23T12:22:06;11.50;99.90
67273;DHT22;54190;49.770;9.250;2023-02-23T12:25:08;11.50;99.90
67273;DHT22;54190;49.770;9.250;2023-02-23T12:27:47;11.50;99.90
67273;DHT22;54190;49.770;9.250;2023-02-23T12:30:26;11.50;99.90
67273;DHT22;54190;49.770;9.250;2023-02-23T12:33:14;11.50;99.90
67273;DHT22;54190;49.770;9.250;2023-02-23T12:35:52;11.40;99.90
67273;DHT22;54190;49.770;9.250;2023-02-23T12:41:17;11.30;99.90
67273;DHT22;54190;49.770;9.250;2023-02-23T12:43:58;11.20;99.90
67273;DHT22;54190;49.770;9.250;2023-02-23T12:46:33;11.20;99.90
67273;DHT22;54190;49.770;9.250;2023-02-23T12:51:52;11.20;99.90
67273;DHT22;54190;49.770;9.250;2023-02-23T12:54:20;11.30;99.90
67273;DHT22;54190;49.770;9.250;2023-02-23T12:57:13;11.40;99.90
67273;DHT22;54190;49.770;9.250;2023-02-23T13:10:30;11.50;99.90
67273;DHT22;54190;49.770;9.250;2023-02-23T13:13:36;11.60;99.90
67273;DHT22;54190;49.770;9.250;2023-02-23T13:16:24;11.60;99.90
67273;DHT22;54190;49.770;9.250;2023-02-23T13:24:23;11.40;99.90
67273;DHT22;54190;49.770;9.250;2023-02-23T13:27:05;11.30;99.90
67273;DHT22;54190;49.770;9.250;2023-02-23T13:29:39;11.40;99.90
67273;DHT22;54190;49.770;9.250;2023-02-23T13:32:15;11.40;99.90
67273;DHT22;54190;49.770;9.250;2023-02-23T13:34:48;11.40;99.90
67273;DHT22;54190;49.770;9.250;2023-02-23T13:37:20;11.40;99.90
67273;DHT22;54190;49.770;9.250;2023-02-23T13:42:41;11.50;99.90
67273;DHT22;54190;49.770;9.250;2023-02-23T13:51:06;11.60;99.90
67273;DHT22;54190;49.770;9.250;2023-02-23T13:56:23;11.70;99.90
67273;DHT22;54190;49.770;9.250;2023-02-23T13:59:07;11.80;99.90
67273;DHT22;54190;49.770;9.250;2023-02-23T14:01:39;11.80;99.90
67273;DHT22;54190;49.770;9.250;2023-02-23T14:04:23;11.80;99.90
67273;DHT22;54190;49.770;9.250;2023-02-23T14:06:54;11.90;99.90
67273;DHT22;54190;49.770;9.250;2023-02-23T14:09:30;11.90;99.90
67273;DHT22;54190;49.770;9.250;2023-02-23T14:12:13;11.80;99.90
67273;DHT22;54190;49.770;9.250;2023-02-23T14:14:44;11.80;99.90
67273;DHT22;54190;49.770;9.250;2023-02-23T14:20:01;11.80;99.90
67273;DHT22;54190;49.770;9.250;2023-02-23T14:22:30;11.90;99.90
67273;DHT22;54190;49.770;9.250;2023-02-23T14:27:59;11.80;99.90
67273;DHT22;54190;49.770;9.250;2023-02-23T14:30:43;11.70;99.90
67273;DHT22;54190;49.770;9.250;2023-02-23T14:33:47;11.60;99.90
67273;DHT22;54190;49.770;9.250;2023-02-23T14:38:46;11.40;99.90
67273;DHT22;54190;49.770;9.250;2023-02-23T14:41:21;11.40;99.90
67273;DHT22;54190;49.770;9.250;2023-02-23T14:43:53;11.40;99.90
67273;DHT22;54190;49.770;9.250;2023-02-23T14:46:20;11.30;99.90
67273;DHT22;54190;49.770;9.250;2023-02-23T14:49:00;11.20;99.90
67273;DHT22;54190;49.770;9.250;2023-02-23T14:51:40;11.20;99.90
67273;DHT22;54190;49.770;9.250;2023-02-23T14:54:33;11.20;99.90
67273;DHT22;54190;49.770;9.250;2023-02-23T14:56:58;11.10;99.90
67273;DHT22;54190;49.770;9.250;2023-02-23T14:59:27;11.10;99.90
67273;DHT22;54190;49.770;9.250;2023-02-23T15:01:57;11.10;99.90
67273;DHT22;54190;49.770;9.250;2023-02-23T15:04:26;11.10;99.90
67273;DHT22;54190;49.770;9.250;2023-02-23T15:06:56;11.00;99.90
67273;DHT22;54190;49.770;9.250;2023-02-23T15:09:37;11.00;99.90
67273;DHT22;54190;49.770;9.250;2023-02-23T15:12:14;11.00;99.90
67273;DHT22;54190;49.770;9.250;2023-02-23T15:14:42;11.00;99.90
67273;DHT22;54190;49.770;9.250;2023-02-23T15:17:14;11.00;99.90
67273;DHT22;54190;49.770;9.250;2023-02-23T15:19:40;11.00;99.90
67273;DHT22;54190;49.770;9.250;2023-02-23T15:22:07;10.90;99.90
67273;DHT22;54190;49.770;9.250;2023-02-23T15:24:41;10.90;99.90
67273;DHT22;54190;49.770;9.250;2023-02-23T15:27:19;10.90;99.90
67273;DHT22;54190;49.770;9.250;2023-02-23T15:29:48;10.90;99.90
67273;DHT22;54190;49.770;9.250;2023-02-23T15:32:19;10.90;99.90
67273;DHT22;54190;49.770;9.250;2023-02-23T15:34:46;10.90;99.90
67273;DHT22;54190;49.770;9.250;2023-02-23T15:37:19;10.90;99.90
67273;DHT22;54190;49.770;9.250;2023-02-23T15:42:22;10.80;99.90
67273;DHT22;54190;49.770;9.250;2023-02-23T15:45:00;10.90;99.90
67273;DHT22;54190;49.770;9.250;2023-02-23T15:47:31;10.90;99.90
67273;DHT22;54190;49.770;9.250;2023-02-23T15:50:07;10.90;99.90
67273;DHT22;54190;49.770;9.250;2023-02-23T15:52:45;10.90;99.90
67273;DHT22;54190;49.770;9.250;2023-02-23T15:55:17;10.90;99.90
67273;DHT22;54190;49.770;9.250;2023-02-23T15:57:51;10.80;99.90
67273;DHT22;54190;49.770;9.250;2023-02-23T16:00:21;10.80;99.90
67273;DHT22;54190;49.770;9.250;2023-02-23T16:02:57;10.80;99.90
67273;DHT22;54190;49.770;9.250;2023-02-23T16:05:24;10.70;99.90
67273;DHT22;54190;49.770;9.250;2023-02-23T16:08:17;10.70;99.90
67273;DHT22;54190;49.770;9.250;2023-02-23T16:10:48;10.70;99.90
67273;DHT22;54190;49.770;9.250;2023-02-23T16:13:19;10.70;99.90
67273;DHT22;54190;49.770;9.250;2023-02-23T16:15:45;10.60;99.90
67273;DHT22;54190;49.770;9.250;2023-02-23T16:18:17;10.60;99.90
67273;DHT22;54190;49.770;9.250;2023-02-23T16:20:48;10.60;99.90
67273;DHT22;54190;49.770;9.250;2023-02-23T16:25:58;10.50;99.90
67273;DHT22;54190;49.770;9.250;2023-02-23T16:28:31;10.50;99.90
67273;DHT22;54190;49.770;9.250;2023-02-23T16:31:01;10.40;99.90
67273;DHT22;54190;49.770;9.250;2023-02-23T16:33:28;10.40;99.90
67273;DHT22;54190;49.770;9.250;2023-02-23T16:38:36;10.40;99.90
67273;DHT22;54190;49.770;9.250;2023-02-23T16:41:20;10.40;99.90
67273;DHT22;54190;49.770;9.250;2023-02-23T16:43:51;10.50;99.90
67273;DHT22;54190;49.770;9.250;2023-02-23T16:46:19;10.50;99.90
67273;DHT22;54190;49.770;9.250;2023-02-23T16:48:46;10.50;99.90
67273;DHT22;54190;49.770;9.250;2023-02-23T16:51:17;10.50;99.90
67273;DHT22;54190;49.770;9.250;2023-02-23T16:53:44;10.50;99.90
67273;DHT22;54190;49.770;9.250;2023-02-23T16:56:11;10.50;99.90
67273;DHT22;54190;49.770;9.250;2023-02-23T16:58:47;10.50;99.90
67273;DHT22;54190;49.770;9.250;2023-02-23T17:01:14;10.50;99.90
67273;DHT22;54190;49.770;9.250;2023-02-23T17:03:40;10.50;99.90
67273;DHT22;54190;49.770;9.250;2023-02-23T17:06:07;10.50;99.90
67273;DHT22;54190;49.770;9.250;2023-02-23T17:08:33;10.50;99.90
67273;DHT22;54190;49.770;9.250;2023-02-23T17:11:02;10.50;99.90
67273;DHT22;54190;49.770;9.250;2023-02-23T17:13:30;10.40;99.90
67273;DHT22;54190;49.770;9.250;2023-02-23T17:16:01;10.30;99.90
67273;DHT22;54190;49.770;9.250;2023-02-23T17:18:30;10.20;99.90
67273;DHT22;54190;49.770;9.250;2023-02-23T17:20:58;10.10;99.90
67273;DHT22;54190;49.770;9.250;2023-02-23T17:23:26;10.10;99.90
67273;DHT22;54190;49.770;9.250;2023-02-23T17:25:53;10.00;99.90
67273;DHT22;54190;49.770;9.250;2023-02-23T17:28:20;10.00;99.90
67273;DHT22;54190;49.770;9.250;2023-02-23T17:30:46;10.00;99.90
67273;DHT22;54190;49.770;9.250;2023-02-23T17:33:12;10.00;99.90
67273;DHT22;54190;49.770;9.250;2023-02-23T17:35:38;9.90;99.90
67273;DHT22;54190;49.770;9.250;2023-02-23T17:38:05;9.90;99.90
67273;DHT22;54190;49.770;9.250;2023-02-23T17:40:31;9.90;99.90
67273;DHT22;54190;49.770;9.250;2023-02-23T17:43:00;10.00;99.90
67273;DHT22;54190;49.770;9.250;2023-02-23T17:45:26;10.00;99.90
67273;DHT22;54190;49.770;9.250;2023-02-23T17:47:52;10.10;99.90
67273;DHT22;54190;49.770;9.250;2023-02-23T17:50:18;10.10;99.90
67273;DHT22;54190;49.770;9.250;2023-02-23T17:52:48;10.20;99.90
67273;DHT22;54190;49.770;9.250;2023-02-23T17:55:14;10.20;99.90
67273;DHT22;54190;49.770;9.250;2023-02-23T17:57:40;10.20;99.90
67273;DHT22;54190;49.770;9.250;2023-02-23T18:00:06;10.20;99.90
67273;DHT22;54190;49.770;9.250;2023-02-23T18:02:40;10.20;99.90